sensor_id;sensor_type;location;lat;lon;timestamp;temperature;humidity
17066;DHT22;23120;52.336;21.182;2022-11-15T00:00:02;6.20;99.40
17066;DHT22;23120;52.336;21.182;2022-11-15T00:02:43;6.20;99.40
17066;DHT22;23120;52.336;21.182;2022-11-15T00:05:22;6.20;99.40
17066;DHT22;23120;52.336;21.182;2022-11-15T00:08:02;6.20;99.30
17066;DHT22;23120;52.336;21.182;2022-11-15T00:10:42;6.20;99.30
17066;DHT22;23120;52.336;21.182;2022-11-15T00:13:22;6.20;99.40
17066;DHT22;23120;52.336;21.182;2022-11-15T00:16:02;6.20;99.60
17066;DHT22;23120;52.336;21.182;2022-11-15T00:18:43;6.20;99.40
17066;DHT22;23120;52.336;21.182;2022-11-15T00:21:21;6.20;99.70
17066;DHT22;23120;52.336;21.182;2022-11-15T00:24:02;6.20;99.50
17066;DHT22;23120;52.336;21.182;2022-11-15T00:26:41;6.20;99.50
17066;DHT22;23120;52.336;21.182;2022-11-15T00:29:21;6.20;99.60
17066;DHT22;23120;52.336;21.182;2022-11-15T00:32:01;6.20;99.80
17066;DHT22;23120;52.336;21.182;2022-11-15T00:34:43;6.20;99.70
17066;DHT22;23120;52.336;21.182;2022-11-15T00:37:22;6.20;99.80
17066;DHT22;23120;52.336;21.182;2022-11-15T00:40:02;6.20;99.80
17066;DHT22;23120;52.336;21.182;2022-11-15T00:42:42;6.20;99.80
17066;DHT22;23120;52.336;21.182;2022-11-15T00:45:22;6.20;99.80
17066;DHT22;23120;52.336;21.182;2022-11-15T00:48:02;6.20;99.80
17066;DHT22;23120;52.336;21.182;2022-11-15T00:50:43;6.20;99.80
17066;DHT22;23120;52.336;21.182;2022-11-15T00:53:22;6.20;99.80
17066;DHT22;23120;52.336;21.182;2022-11-15T00:56:02;6.20;99.80
17066;DHT22;23120;52.336;21.182;2022-11-15T00:58:42;6.20;99.80
17066;DHT22;23120;52.336;21.182;2022-11-15T01:01:22;6.20;99.80
17066;DHT22;23120;52.336;21.182;2022-11-15T01:04:02;6.20;99.80
17066;DHT22;23120;52.336;21.182;2022-11-15T01:06:43;6.20;99.80
17066;DHT22;23120;52.336;21.182;2022-11-15T01:09:22;6.20;99.80
17066;DHT22;23120;52.336;21.182;2022-11-15T01:12:02;6.20;99.80
17066;DHT22;23120;52.336;21.182;2022-11-15T01:14:42;6.20;99.80
17066;DHT22;23120;52.336;21.182;2022-11-15T01:17:22;6.20;99.80
17066;DHT22;23120;52.336;21.182;2022-11-15T01:20:02;6.30;99.80
17066;DHT22;23120;52.336;21.182;2022-11-15T01:22:43;6.20;99.90
17066;DHT22;23120;52.336;21.182;2022-11-15T01:25:22;6.20;99.80
17066;DHT22;23120;52.336;21.182;2022-11-15T01:28:02;6.20;99.80
17066;DHT22;23120;52.336;21.182;2022-11-15T01:30:42;6.20;99.80
17066;DHT22;23120;52.336;21.182;2022-11-15T01:33:22;6.20;99.80
17066;DHT22;23120;52.336;21.182;2022-11-15T01:36:03;6.20;99.80
17066;DHT22;23120;52.336;21.182;2022-11-15T01:38:43;6.20;99.80
17066;DHT22;23120;52.336;21.182;2022-11-15T01:41:23;6.20;99.80
17066;DHT22;23120;52.336;21.182;2022-11-15T01:44:31;6.20;99.80
17066;DHT22;23120;52.336;21.182;2022-11-15T01:47:15;6.20;99.80
17066;DHT22;23120;52.336;21.182;2022-11-15T01:50:05;6.20;99.80
17066;DHT22;23120;52.336;21.182;2022-11-15T01:52:52;6.20;99.80
17066;DHT22;23120;52.336;21.182;2022-11-15T01:55:33;6.20;99.80
17066;DHT22;23120;52.336;21.182;2022-11-15T01:58:12;6.20;99.80
17066;DHT22;23120;52.336;21.182;2022-11-15T02:00:52;6.20;99.80
17066;DHT22;23120;52.336;21.182;2022-11-15T02:03:36;6.20;99.80
17066;DHT22;23120;52.336;21.182;2022-11-15T02:06:22;6.20;99.80
17066;DHT22;23120;52.336;21.182;2022-11-15T02:09:02;6.20;99.80
17066;DHT22;23120;52.336;21.182;2022-11-15T02:11:44;6.20;99.80
17066;DHT22;23120;52.336;21.182;2022-11-15T02:14:23;6.10;99.70
17066;DHT22;23120;52.336;21.182;2022-11-15T02:17:10;6.10;99.80
17066;DHT22;23120;52.336;21.182;2022-11-15T02:20:13;6.10;99.80
17066;DHT22;23120;52.336;21.182;2022-11-15T02:26:54;6.10;99.90
17066;DHT22;23120;52.336;21.182;2022-11-15T02:32:57;6.10;99.90
17066;DHT22;23120;52.336;21.182;2022-11-15T02:35:47;6.10;99.90
17066;DHT22;23120;52.336;21.182;2022-11-15T02:38:37;6.10;99.90
17066;DHT22;23120;52.336;21.182;2022-11-15T02:41:25;6.10;99.90
17066;DHT22;23120;52.336;21.182;2022-11-15T02:44:13;6.10;99.90
17066;DHT22;23120;52.336;21.182;2022-11-15T02:46:54;6.10;99.90
17066;DHT22;23120;52.336;21.182;2022-11-15T02:49:56;6.10;99.90
17066;DHT22;23120;52.336;21.182;2022-11-15T02:52:45;6.10;99.90
17066;DHT22;23120;52.336;21.182;2022-11-15T02:55:33;6.10;99.90
17066;DHT22;23120;52.336;21.182;2022-11-15T03:01:32;6.10;99.90
17066;DHT22;23120;52.336;21.182;2022-11-15T03:04:22;6.10;99.90
17066;DHT22;23120;52.336;21.182;2022-11-15T03:07:10;6.10;99.90
17066;DHT22;23120;52.336;21.182;2022-11-15T03:09:55;6.10;99.90
17066;DHT22;23120;52.336;21.182;2022-11-15T03:12:46;6.00;99.90
17066;DHT22;23120;52.336;21.182;2022-11-15T03:15:36;6.10;99.90
17066;DHT22;23120;52.336;21.182;2022-11-15T03:18:26;6.00;99.90
17066;DHT22;23120;52.336;21.182;2022-11-15T03:21:13;6.10;99.90
17066;DHT22;23120;52.336;21.182;2022-11-15T03:23:55;6.10;99.90
17066;DHT22;23120;52.336;21.182;2022-11-15T03:26:44;6.10;99.90
17066;DHT22;23120;52.336;21.182;2022-11-15T03:29:24;6.10;99.90
17066;DHT22;23120;52.336;21.182;2022-11-15T03:32:14;6.00;99.90
17066;DHT22;23120;52.336;21.182;2022-11-15T03:35:05;6.10;99.90
17066;DHT22;23120;52.336;21.182;2022-11-15T03:37:57;6.10;99.90
17066;DHT22;23120;52.336;21.182;2022-11-15T03:40:49;6.00;99.90
17066;DHT22;23120;52.336;21.182;2022-11-15T03:43:38;6.00;99.90
17066;DHT22;23120;52.336;21.182;2022-11-15T03:46:25;6.00;99.90
17066;DHT22;23120;52.336;21.182;2022-11-15T03:49:14;6.00;99.90
17066;DHT22;23120;52.336;21.182;2022-11-15T03:51:52;6.00;99.90
17066;DHT22;23120;52.336;21.182;2022-11-15T03:54:32;6.00;99.90
17066;DHT22;23120;52.336;21.182;2022-11-15T03:57:13;6.00;99.90
17066;DHT22;23120;52.336;21.182;2022-11-15T03:59:52;6.00;99.90
17066;DHT22;23120;52.336;21.182;2022-11-15T04:02:32;6.00;99.90
17066;DHT22;23120;52.336;21.182;2022-11-15T04:05:12;6.00;99.90
17066;DHT22;23120;52.336;21.182;2022-11-15T04:07:52;6.00;99.90
17066;DHT22;23120;52.336;21.182;2022-11-15T04:10:32;6.00;99.90
17066;DHT22;23120;52.336;21.182;2022-11-15T04:13:13;6.00;99.90
17066;DHT22;23120;52.336;21.182;2022-11-15T04:15:54;6.00;99.90
17066;DHT22;23120;52.336;21.182;2022-11-15T04:18:32;6.00;99.90
17066;DHT22;23120;52.336;21.182;2022-11-15T04:21:12;6.00;99.90
17066;DHT22;23120;52.336;21.182;2022-11-15T04:24:12;6.00;99.90
17066;DHT22;23120;52.336;21.182;2022-11-15T04:26:52;5.90;99.90
17066;DHT22;23120;52.336;21.182;2022-11-15T04:29:33;6.00;99.90
17066;DHT22;23120;52.336;21.182;2022-11-15T04:32:12;5.90;99.90
17066;DHT22;23120;52.336;21.182;2022-11-15T04:34:52;5.90;99.90
17066;DHT22;23120;52.336;21.182;2022-11-15T04:37:32;5.90;99.90
17066;DHT22;23120;52.336;21.182;2022-11-15T04:40:12;5.90;99.90
17066;DHT22;23120;52.336;21.182;2022-11-15T04:42:52;5.90;99.90
17066;DHT22;23120;52.336;21.182;2022-11-15T04:45:33;5.90;99.90
17066;DHT22;23120;52.336;21.182;2022-11-15T04:48:12;5.90;99.90
17066;DHT22;23120;52.336;21.182;2022-11-15T04:50:53;5.90;99.90
17066;DHT22;23120;52.336;21.182;2022-11-15T04:53:32;5.90;99.90
17066;DHT22;23120;52.336;21.182;2022-11-15T04:56:12;5.90;99.90
17066;DHT22;23120;52.336;21.182;2022-11-15T04:58:52;5.90;99.90
17066;DHT22;23120;52.336;21.182;2022-11-15T05:01:33;5.90;99.90
17066;DHT22;23120;52.336;21.182;2022-11-15T05:04:12;5.90;99.90
17066;DHT22;23120;52.336;21.182;2022-11-15T05:07:02;5.90;99.90
17066;DHT22;23120;52.336;21.182;2022-11-15T05:09:42;5.90;99.90
17066;DHT22;23120;52.336;21.182;2022-11-15T05:12:22;5.90;99.90
17066;DHT22;23120;52.336;21.182;2022-11-15T05:15:02;5.90;99.90
17066;DHT22;23120;52.336;21.182;2022-11-15T05:17:43;5.90;99.90
17066;DHT22;23120;52.336;21.182;2022-11-15T05:20:22;6.00;99.90
17066;DHT22;23120;52.336;21.182;2022-11-15T05:23:02;5.90;99.90
17066;DHT22;23120;52.336;21.182;2022-11-15T05:25:42;5.90;99.90
17066;DHT22;23120;52.336;21.182;2022-11-15T05:28:22;6.00;99.90
17066;DHT22;23120;52.336;21.182;2022-11-15T05:31:03;5.90;99.90
17066;DHT22;23120;52.336;21.182;2022-11-15T05:33:44;6.00;99.90
17066;DHT22;23120;52.336;21.182;2022-11-15T05:36:29;6.00;99.90
17066;DHT22;23120;52.336;21.182;2022-11-15T05:39:12;6.00;99.90
17066;DHT22;23120;52.336;21.182;2022-11-15T05:41:54;6.00;99.90
17066;DHT22;23120;52.336;21.182;2022-11-15T05:44:32;6.00;99.90
17066;DHT22;23120;52.336;21.182;2022-11-15T05:47:15;5.90;99.90
17066;DHT22;23120;52.336;21.182;2022-11-15T05:50:04;6.00;99.90
17066;DHT22;23120;52.336;21.182;2022-11-15T05:52:42;5.90;99.90
17066;DHT22;23120;52.336;21.182;2022-11-15T05:55:22;5.90;99.90
17066;DHT22;23120;52.336;21.182;2022-11-15T05:58:02;5.90;99.90
17066;DHT22;23120;52.336;21.182;2022-11-15T06:00:42;5.90;99.90
17066;DHT22;23120;52.336;21.182;2022-11-15T06:03:22;6.00;99.90
17066;DHT22;23120;52.336;21.182;2022-11-15T06:06:04;5.90;99.90
17066;DHT22;23120;52.336;21.182;2022-11-15T06:08:42;6.00;99.90
17066;DHT22;23120;52.336;21.182;2022-11-15T06:11:22;6.00;99.90
17066;DHT22;23120;52.336;21.182;2022-11-15T06:14:02;6.00;99.90
17066;DHT22;23120;52.336;21.182;2022-11-15T06:16:43;6.00;99.90
17066;DHT22;23120;52.336;21.182;2022-11-15T06:19:22;5.90;99.90
17066;DHT22;23120;52.336;21.182;2022-11-15T06:22:04;5.90;99.90
17066;DHT22;23120;52.336;21.182;2022-11-15T06:24:42;5.90;99.90
17066;DHT22;23120;52.336;21.182;2022-11-15T06:27:22;5.90;99.90
17066;DHT22;23120;52.336;21.182;2022-11-15T06:30:02;5.90;99.90
17066;DHT22;23120;52.336;21.182;2022-11-15T06:32:42;5.90;99.90
17066;DHT22;23120;52.336;21.182;2022-11-15T06:35:22;5.90;99.90
17066;DHT22;23120;52.336;21.182;2022-11-15T06:38:05;6.00;99.90
17066;DHT22;23120;52.336;21.182;2022-11-15T06:40:52;6.00;99.90
17066;DHT22;23120;52.336;21.182;2022-11-15T06:43:32;5.90;99.90
17066;DHT22;23120;52.336;21.182;2022-11-15T06:46:12;6.00;99.90
17066;DHT22;23120;52.336;21.182;2022-11-15T06:48:52;5.90;99.90
17066;DHT22;23120;52.336;21.182;2022-11-15T06:51:32;6.00;99.90
17066;DHT22;23120;52.336;21.182;2022-11-15T06:54:14;6.00;99.90
17066;DHT22;23120;52.336;21.182;2022-11-15T06:56:52;6.00;99.90
17066;DHT22;23120;52.336;21.182;2022-11-15T06:59:32;5.90;99.90
17066;DHT22;23120;52.336;21.182;2022-11-15T07:02:12;6.00;99.90
17066;DHT22;23120;52.336;21.182;2022-11-15T07:04:52;6.00;99.90
17066;DHT22;23120;52.336;21.182;2022-11-15T07:07:32;6.00;99.90
17066;DHT22;23120;52.336;21.182;2022-11-15T07:10:14;6.00;99.90
17066;DHT22;23120;52.336;21.182;2022-11-15T07:12:53;6.00;99.90
17066;DHT22;23120;52.336;21.182;2022-11-15T07:15:32;6.00;99.90
17066;DHT22;23120;52.336;21.182;2022-11-15T07:18:12;6.00;99.90
17066;DHT22;23120;52.336;21.182;2022-11-15T07:20:52;6.00;99.90
17066;DHT22;23120;52.336;21.182;2022-11-15T07:23:32;6.10;99.90
17066;DHT22;23120;52.336;21.182;2022-11-15T07:26:14;6.10;99.90
17066;DHT22;23120;52.336;21.182;2022-11-15T07:28:52;6.00;99.90
17066;DHT22;23120;52.336;21.182;2022-11-15T07:31:32;6.10;99.90
17066;DHT22;23120;52.336;21.182;2022-11-15T07:34:12;6.10;99.90
17066;DHT22;23120;52.336;21.182;2022-11-15T07:36:52;6.10;99.90
17066;DHT22;23120;52.336;21.182;2022-11-15T07:39:32;6.10;99.90
17066;DHT22;23120;52.336;21.182;2022-11-15T07:42:14;6.10;99.90
17066;DHT22;23120;52.336;21.182;2022-11-15T07:45:12;6.10;99.90
17066;DHT22;23120;52.336;21.182;2022-11-15T07:47:52;6.10;99.90
17066;DHT22;23120;52.336;21.182;2022-11-15T07:50:32;6.10;99.90
17066;DHT22;23120;52.336;21.182;2022-11-15T07:53:12;6.10;99.90
17066;DHT22;23120;52.336;21.182;2022-11-15T07:55:52;6.10;99.90
17066;DHT22;23120;52.336;21.182;2022-11-15T07:58:33;6.10;99.90
17066;DHT22;23120;52.336;21.182;2022-11-15T08:01:12;6.10;99.90
17066;DHT22;23120;52.336;21.182;2022-11-15T08:03:52;6.10;99.90
17066;DHT22;23120;52.336;21.182;2022-11-15T08:06:32;6.10;99.90
17066;DHT22;23120;52.336;21.182;2022-11-15T08:09:12;6.10;99.90
17066;DHT22;23120;52.336;21.182;2022-11-15T08:11:52;6.10;99.90
17066;DHT22;23120;52.336;21.182;2022-11-15T08:14:34;6.10;99.90
17066;DHT22;23120;52.336;21.182;2022-11-15T08:17:12;6.10;99.90
17066;DHT22;23120;52.336;21.182;2022-11-15T08:19:52;6.10;99.90
17066;DHT22;23120;52.336;21.182;2022-11-15T08:22:33;6.10;99.90
17066;DHT22;23120;52.336;21.182;2022-11-15T08:25:12;6.20;99.90
17066;DHT22;23120;52.336;21.182;2022-11-15T08:27:53;6.10;99.90
17066;DHT22;23120;52.336;21.182;2022-11-15T08:30:37;6.20;99.90
17066;DHT22;23120;52.336;21.182;2022-11-15T08:33:22;6.20;99.90
17066;DHT22;23120;52.336;21.182;2022-11-15T08:36:03;6.10;99.90
17066;DHT22;23120;52.336;21.182;2022-11-15T08:38:42;6.20;99.90
17066;DHT22;23120;52.336;21.182;2022-11-15T08:41:25;6.20;99.90
17066;DHT22;23120;52.336;21.182;2022-11-15T08:44:12;6.20;99.90
17066;DHT22;23120;52.336;21.182;2022-11-15T08:46:53;6.20;99.90
17066;DHT22;23120;52.336;21.182;2022-11-15T08:49:32;6.20;99.90
17066;DHT22;23120;52.336;21.182;2022-11-15T08:52:13;6.20;99.90
17066;DHT22;23120;52.336;21.182;2022-11-15T08:54:52;6.30;99.90
17066;DHT22;23120;52.336;21.182;2022-11-15T08:57:32;6.30;99.90
17066;DHT22;23120;52.336;21.182;2022-11-15T09:00:13;6.30;99.90
17066;DHT22;23120;52.336;21.182;2022-11-15T09:02:53;6.30;99.90
17066;DHT22;23120;52.336;21.182;2022-11-15T09:05:32;6.30;99.90
17066;DHT22;23120;52.336;21.182;2022-11-15T09:08:12;6.30;99.90
17066;DHT22;23120;52.336;21.182;2022-11-15T09:10:52;6.40;99.90
17066;DHT22;23120;52.336;21.182;2022-11-15T09:13:33;6.40;99.90
17066;DHT22;23120;52.336;21.182;2022-11-15T09:16:12;6.40;99.90
17066;DHT22;23120;52.336;21.182;2022-11-15T09:18:54;6.40;99.90
17066;DHT22;23120;52.336;21.182;2022-11-15T09:21:32;6.40;99.90
17066;DHT22;23120;52.336;21.182;2022-11-15T09:24:12;6.50;99.90
17066;DHT22;23120;52.336;21.182;2022-11-15T09:26:52;6.50;99.90
17066;DHT22;23120;52.336;21.182;2022-11-15T09:29:32;6.50;99.90
17066;DHT22;23120;52.336;21.182;2022-11-15T09:32:12;6.50;99.90
17066;DHT22;23120;52.336;21.182;2022-11-15T09:34:54;6.50;99.90
17066;DHT22;23120;52.336;21.182;2022-11-15T09:37:32;6.50;99.90
17066;DHT22;23120;52.336;21.182;2022-11-15T09:40:14;6.50;99.90
17066;DHT22;23120;52.336;21.182;2022-11-15T09:43:11;6.50;99.90
17066;DHT22;23120;52.336;21.182;2022-11-15T09:46:08;6.50;99.90
17066;DHT22;23120;52.336;21.182;2022-11-15T09:48:53;6.50;99.90
17066;DHT22;23120;52.336;21.182;2022-11-15T09:51:35;6.50;99.90
17066;DHT22;23120;52.336;21.182;2022-11-15T09:54:20;6.50;99.90
17066;DHT22;23120;52.336;21.182;2022-11-15T09:56:49;6.60;99.90
17066;DHT22;23120;52.336;21.182;2022-11-15T09:59:28;6.60;99.90
17066;DHT22;23120;52.336;21.182;2022-11-15T10:02:04;6.60;99.90
17066;DHT22;23120;52.336;21.182;2022-11-15T10:04:36;6.60;99.90
17066;DHT22;23120;52.336;21.182;2022-11-15T10:07:14;6.70;99.90
17066;DHT22;23120;52.336;21.182;2022-11-15T10:09:47;6.70;99.90
17066;DHT22;23120;52.336;21.182;2022-11-15T10:12:15;6.70;99.90
17066;DHT22;23120;52.336;21.182;2022-11-15T10:14:42;6.70;99.90
17066;DHT22;23120;52.336;21.182;2022-11-15T10:17:34;6.70;99.90
17066;DHT22;23120;52.336;21.182;2022-11-15T10:20:12;6.80;99.90
17066;DHT22;23120;52.336;21.182;2022-11-15T10:22:47;6.80;99.90
17066;DHT22;23120;52.336;21.182;2022-11-15T10:25:20;6.80;99.90
17066;DHT22;23120;52.336;21.182;2022-11-15T10:27:53;6.70;99.90
17066;DHT22;23120;52.336;21.182;2022-11-15T10:30:21;6.80;99.90
17066;DHT22;23120;52.336;21.182;2022-11-15T10:32:48;6.70;99.80
17066;DHT22;23120;52.336;21.182;2022-11-15T10:35:18;6.80;99.80
17066;DHT22;23120;52.336;21.182;2022-11-15T10:37:47;6.80;99.80
17066;DHT22;23120;52.336;21.182;2022-11-15T10:40:19;6.80;99.70
17066;DHT22;23120;52.336;21.182;2022-11-15T10:42:48;6.80;99.70
17066;DHT22;23120;52.336;21.182;2022-11-15T10:45:24;6.80;99.70
17066;DHT22;23120;52.336;21.182;2022-11-15T10:47:51;6.80;99.70
17066;DHT22;23120;52.336;21.182;2022-11-15T10:50:29;6.80;99.70
17066;DHT22;23120;52.336;21.182;2022-11-15T10:52:58;6.80;99.70
17066;DHT22;23120;52.336;21.182;2022-11-15T10:55:30;6.90;99.70
17066;DHT22;23120;52.336;21.182;2022-11-15T10:58:02;6.90;99.70
17066;DHT22;23120;52.336;21.182;2022-11-15T11:00:33;6.90;99.70
17066;DHT22;23120;52.336;21.182;2022-11-15T11:03:02;6.80;99.50
17066;DHT22;23120;52.336;21.182;2022-11-15T11:05:31;6.90;99.50
17066;DHT22;23120;52.336;21.182;2022-11-15T11:08:01;6.90;99.50
17066;DHT22;23120;52.336;21.182;2022-11-15T11:10:29;6.90;99.50
17066;DHT22;23120;52.336;21.182;2022-11-15T11:12:56;6.90;99.40
17066;DHT22;23120;52.336;21.182;2022-11-15T11:15:40;6.90;99.40
17066;DHT22;23120;52.336;21.182;2022-11-15T11:18:14;6.90;99.40
17066;DHT22;23120;52.336;21.182;2022-11-15T11:20:46;6.90;99.30
17066;DHT22;23120;52.336;21.182;2022-11-15T11:23:44;6.90;99.30
17066;DHT22;23120;52.336;21.182;2022-11-15T11:26:25;6.90;99.40
17066;DHT22;23120;52.336;21.182;2022-11-15T11:29:04;6.90;99.40
17066;DHT22;23120;52.336;21.182;2022-11-15T11:31:41;7.00;99.70
17066;DHT22;23120;52.336;21.182;2022-11-15T11:34:29;7.00;99.40
17066;DHT22;23120;52.336;21.182;2022-11-15T11:37:04;6.90;99.40
17066;DHT22;23120;52.336;21.182;2022-11-15T11:39:45;7.00;99.40
17066;DHT22;23120;52.336;21.182;2022-11-15T11:42:23;7.00;99.40
17066;DHT22;23120;52.336;21.182;2022-11-15T11:44:59;7.00;99.40
17066;DHT22;23120;52.336;21.182;2022-11-15T11:47:32;7.00;99.40
17066;DHT22;23120;52.336;21.182;2022-11-15T11:50:10;7.00;99.30
17066;DHT22;23120;52.336;21.182;2022-11-15T11:52:41;7.00;99.20
17066;DHT22;23120;52.336;21.182;2022-11-15T11:55:15;6.90;99.20
17066;DHT22;23120;52.336;21.182;2022-11-15T11:57:48;6.90;99.20
17066;DHT22;23120;52.336;21.182;2022-11-15T12:00:19;6.90;99.30
17066;DHT22;23120;52.336;21.182;2022-11-15T12:02:51;7.00;99.30
17066;DHT22;23120;52.336;21.182;2022-11-15T12:05:28;6.90;99.40
17066;DHT22;23120;52.336;21.182;2022-11-15T12:08:04;7.00;99.40
17066;DHT22;23120;52.336;21.182;2022-11-15T12:10:36;7.00;99.30
17066;DHT22;23120;52.336;21.182;2022-11-15T12:13:08;7.00;99.30
17066;DHT22;23120;52.336;21.182;2022-11-15T12:15:40;7.00;99.30
17066;DHT22;23120;52.336;21.182;2022-11-15T12:18:15;7.00;99.20
17066;DHT22;23120;52.336;21.182;2022-11-15T12:20:50;7.00;99.30
17066;DHT22;23120;52.336;21.182;2022-11-15T12:23:22;7.00;99.30
17066;DHT22;23120;52.336;21.182;2022-11-15T12:25:54;7.00;99.20
17066;DHT22;23120;52.336;21.182;2022-11-15T12:28:30;7.00;99.30
17066;DHT22;23120;52.336;21.182;2022-11-15T12:31:04;7.00;99.30
17066;DHT22;23120;52.336;21.182;2022-11-15T12:33:37;7.00;99.20
17066;DHT22;23120;52.336;21.182;2022-11-15T12:36:09;6.90;99.10
17066;DHT22;23120;52.336;21.182;2022-11-15T12:38:57;7.00;99.20
17066;DHT22;23120;52.336;21.182;2022-11-15T12:41:26;6.90;99.20
17066;DHT22;23120;52.336;21.182;2022-11-15T12:43:54;6.90;99.20
17066;DHT22;23120;52.336;21.182;2022-11-15T12:49:44;6.90;99.20
17066;DHT22;23120;52.336;21.182;2022-11-15T12:52:11;6.90;99.10
17066;DHT22;23120;52.336;21.182;2022-11-15T12:55:02;6.90;99.30
17066;DHT22;23120;52.336;21.182;2022-11-15T12:57:35;6.90;99.30
17066;DHT22;23120;52.336;21.182;2022-11-15T13:03:19;6.90;99.30
17066;DHT22;23120;52.336;21.182;2022-11-15T13:06:06;6.90;99.30
17066;DHT22;23120;52.336;21.182;2022-11-15T13:08:46;6.90;99.20
17066;DHT22;23120;52.336;21.182;2022-11-15T13:11:46;6.90;99.30
17066;DHT22;23120;52.336;21.182;2022-11-15T13:14:40;6.90;99.30
17066;DHT22;23120;52.336;21.182;2022-11-15T13:17:31;6.90;99.30
17066;DHT22;23120;52.336;21.182;2022-11-15T13:20:20;6.90;99.40
17066;DHT22;23120;52.336;21.182;2022-11-15T13:22:49;6.90;99.40
17066;DHT22;23120;52.336;21.182;2022-11-15T13:28:31;6.90;99.40
17066;DHT22;23120;52.336;21.182;2022-11-15T13:31:01;6.80;99.40
17066;DHT22;23120;52.336;21.182;2022-11-15T13:33:31;6.80;99.30
17066;DHT22;23120;52.336;21.182;2022-11-15T13:36:01;6.80;99.30
17066;DHT22;23120;52.336;21.182;2022-11-15T13:38:30;6.80;99.40
17066;DHT22;23120;52.336;21.182;2022-11-15T13:40:59;6.80;99.30
17066;DHT22;23120;52.336;21.182;2022-11-15T13:43:29;6.80;99.30
17066;DHT22;23120;52.336;21.182;2022-11-15T13:46:06;6.80;99.40
17066;DHT22;23120;52.336;21.182;2022-11-15T13:48:34;6.80;99.40
17066;DHT22;23120;52.336;21.182;2022-11-15T13:51:01;6.80;99.50
17066;DHT22;23120;52.336;21.182;2022-11-15T13:53:30;6.80;99.50
17066;DHT22;23120;52.336;21.182;2022-11-15T13:55:58;6.70;99.40
17066;DHT22;23120;52.336;21.182;2022-11-15T13:58:25;6.80;99.50
17066;DHT22;23120;52.336;21.182;2022-11-15T14:00:59;6.80;99.50
17066;DHT22;23120;52.336;21.182;2022-11-15T14:03:30;6.80;99.60
17066;DHT22;23120;52.336;21.182;2022-11-15T14:06:09;6.70;99.50
17066;DHT22;23120;52.336;21.182;2022-11-15T14:08:37;6.70;99.40
17066;DHT22;23120;52.336;21.182;2022-11-15T14:11:16;6.70;99.50
17066;DHT22;23120;52.336;21.182;2022-11-15T14:14:01;6.70;99.40
17066;DHT22;23120;52.336;21.182;2022-11-15T14:16:33;6.70;99.60
17066;DHT22;23120;52.336;21.182;2022-11-15T14:19:04;6.70;99.60
17066;DHT22;23120;52.336;21.182;2022-11-15T14:21:31;6.70;99.60
17066;DHT22;23120;52.336;21.182;2022-11-15T14:24:14;6.70;99.90
17066;DHT22;23120;52.336;21.182;2022-11-15T14:26:41;6.60;99.50
17066;DHT22;23120;52.336;21.182;2022-11-15T14:29:24;6.70;99.60
17066;DHT22;23120;52.336;21.182;2022-11-15T14:31:52;6.60;99.50
17066;DHT22;23120;52.336;21.182;2022-11-15T14:34:20;6.60;99.60
17066;DHT22;23120;52.336;21.182;2022-11-15T14:36:48;6.60;99.60
17066;DHT22;23120;52.336;21.182;2022-11-15T14:39:15;6.60;99.60
17066;DHT22;23120;52.336;21.182;2022-11-15T14:41:42;6.60;99.50
17066;DHT22;23120;52.336;21.182;2022-11-15T14:44:10;6.50;99.50
17066;DHT22;23120;52.336;21.182;2022-11-15T14:46:37;6.60;99.60
17066;DHT22;23120;52.336;21.182;2022-11-15T14:49:04;6.50;99.70
17066;DHT22;23120;52.336;21.182;2022-11-15T14:51:32;6.50;99.70
17066;DHT22;23120;52.336;21.182;2022-11-15T14:53:59;6.50;99.80
17066;DHT22;23120;52.336;21.182;2022-11-15T14:56:26;6.50;99.70
17066;DHT22;23120;52.336;21.182;2022-11-15T14:58:54;6.50;99.60
17066;DHT22;23120;52.336;21.182;2022-11-15T15:01:25;6.50;99.60
17066;DHT22;23120;52.336;21.182;2022-11-15T15:03:52;6.50;99.90
17066;DHT22;23120;52.336;21.182;2022-11-15T15:06:21;6.50;99.80
17066;DHT22;23120;52.336;21.182;2022-11-15T15:08:49;6.50;99.90
17066;DHT22;23120;52.336;21.182;2022-11-15T15:11:21;6.40;99.80
17066;DHT22;23120;52.336;21.182;2022-11-15T15:13:48;6.50;99.90
17066;DHT22;23120;52.336;21.182;2022-11-15T15:16:15;6.40;99.90
17066;DHT22;23120;52.336;21.182;2022-11-15T15:18:41;6.40;99.90
17066;DHT22;23120;52.336;21.182;2022-11-15T15:21:19;6.40;99.90
17066;DHT22;23120;52.336;21.182;2022-11-15T15:23:46;6.40;99.90
17066;DHT22;23120;52.336;21.182;2022-11-15T15:26:14;6.40;99.90
17066;DHT22;23120;52.336;21.182;2022-11-15T15:28:41;6.40;99.90
17066;DHT22;23120;52.336;21.182;2022-11-15T15:31:08;6.40;99.90
17066;DHT22;23120;52.336;21.182;2022-11-15T15:33:35;6.40;99.90
17066;DHT22;23120;52.336;21.182;2022-11-15T15:36:02;6.40;99.90
17066;DHT22;23120;52.336;21.182;2022-11-15T15:38:29;6.40;99.90
17066;DHT22;23120;52.336;21.182;2022-11-15T15:40:56;6.40;99.90
17066;DHT22;23120;52.336;21.182;2022-11-15T15:43:26;6.40;99.90
17066;DHT22;23120;52.336;21.182;2022-11-15T15:45:53;6.40;99.90
17066;DHT22;23120;52.336;21.182;2022-11-15T15:48:21;6.30;99.90
17066;DHT22;23120;52.336;21.182;2022-11-15T15:50:48;6.30;99.80
17066;DHT22;23120;52.336;21.182;2022-11-15T15:53:15;6.30;99.90
17066;DHT22;23120;52.336;21.182;2022-11-15T15:55:42;6.30;99.90
17066;DHT22;23120;52.336;21.182;2022-11-15T15:58:09;6.30;99.90
17066;DHT22;23120;52.336;21.182;2022-11-15T16:00:37;6.30;99.80
17066;DHT22;23120;52.336;21.182;2022-11-15T16:03:04;6.30;99.80
17066;DHT22;23120;52.336;21.182;2022-11-15T16:05:31;6.30;99.80
17066;DHT22;23120;52.336;21.182;2022-11-15T16:07:58;6.20;99.90
17066;DHT22;23120;52.336;21.182;2022-11-15T16:10:26;6.30;99.90
17066;DHT22;23120;52.336;21.182;2022-11-15T16:12:53;6.20;99.80
17066;DHT22;23120;52.336;21.182;2022-11-15T16:15:25;6.30;99.90
17066;DHT22;23120;52.336;21.182;2022-11-15T16:17:55;6.20;99.80
17066;DHT22;23120;52.336;21.182;2022-11-15T16:20:31;6.20;99.80
17066;DHT22;23120;52.336;21.182;2022-11-15T16:22:58;6.20;99.90
17066;DHT22;23120;52.336;21.182;2022-11-15T16:25:25;6.20;99.90
17066;DHT22;23120;52.336;21.182;2022-11-15T16:27:52;6.20;99.90
17066;DHT22;23120;52.336;21.182;2022-11-15T16:30:21;6.20;99.90
17066;DHT22;23120;52.336;21.182;2022-11-15T16:32:48;6.20;99.90
17066;DHT22;23120;52.336;21.182;2022-11-15T16:35:16;6.20;99.90
17066;DHT22;23120;52.336;21.182;2022-11-15T16:37:44;6.20;99.90
17066;DHT22;23120;52.336;21.182;2022-11-15T16:40:25;6.10;99.80
17066;DHT22;23120;52.336;21.182;2022-11-15T16:42:52;6.10;99.90
17066;DHT22;23120;52.336;21.182;2022-11-15T16:45:20;6.10;99.90
17066;DHT22;23120;52.336;21.182;2022-11-15T16:47:47;6.00;99.90
17066;DHT22;23120;52.336;21.182;2022-11-15T16:50:20;6.10;99.90
17066;DHT22;23120;52.336;21.182;2022-11-15T16:52:50;6.10;99.90
17066;DHT22;23120;52.336;21.182;2022-11-15T16:55:17;6.10;99.90